createdAt,value
2019-05-06T00:00:30.668Z,39.00
2019-05-06T00:03:05.077Z,39.60
2019-05-06T00:05:38.755Z,39.60
2019-05-06T00:08:14.325Z,39.20
2019-05-06T00:10:48.392Z,39.90
2019-05-06T00:13:24.054Z,39.80
2019-05-06T00:15:57.014Z,39.70
2019-05-06T00:18:30.717Z,39.50
2019-05-06T00:21:05.191Z,39.70
2019-05-06T00:23:44.946Z,40.00
2019-05-06T00:26:37.908Z,40.50
2019-05-06T00:29:17.870Z,40.60
2019-05-06T00:31:51.152Z,40.60
2019-05-06T00:34:25.323Z,40.40
2019-05-06T00:36:58.758Z,39.80
2019-05-06T00:40:06.043Z,39.50
2019-05-06T00:42:54.241Z,39.10
2019-05-06T00:45:28.718Z,39.00
2019-05-06T00:48:04.516Z,38.90
2019-05-06T00:50:37.860Z,38.90
2019-05-06T00:53:14.151Z,39.00
2019-05-06T00:55:47.854Z,39.40
2019-05-06T00:58:23.639Z,39.10
2019-05-06T01:00:56.781Z,39.30
2019-05-06T01:03:30.159Z,39.60
2019-05-06T01:06:04.761Z,39.50
2019-05-06T01:08:38.571Z,39.40
2019-05-06T01:11:14.462Z,39.50
2019-05-06T01:14:07.220Z,39.50
2019-05-06T01:16:43.851Z,39.00
2019-05-06T01:19:16.349Z,39.00
2019-05-06T01:21:50.419Z,39.20
2019-05-06T01:24:24.041Z,39.60
2019-05-06T01:26:57.649Z,39.80
2019-05-06T01:29:31.017Z,39.30
2019-05-06T01:32:05.038Z,39.50
2019-05-06T01:34:39.251Z,40.00
2019-05-06T01:37:14.287Z,40.50
2019-05-06T01:40:04.142Z,41.00
2019-05-06T01:42:50.909Z,40.00
2019-05-06T01:45:24.621Z,40.00
2019-05-06T01:47:58.054Z,39.90
2019-05-06T01:50:34.318Z,39.80
2019-05-06T01:53:07.956Z,39.50
2019-05-06T01:55:41.448Z,39.50
2019-05-06T01:58:14.879Z,39.40
2019-05-06T02:00:48.461Z,39.50
2019-05-06T02:03:24.101Z,39.40
2019-05-06T02:05:57.869Z,39.40
2019-05-06T02:08:33.574Z,39.50
2019-05-06T02:11:07.282Z,39.30
2019-05-06T02:13:40.475Z,38.90
2019-05-06T02:16:14.828Z,38.60
2019-05-06T02:18:47.645Z,38.30
2019-05-06T02:21:40.137Z,38.80
2019-05-06T02:24:19.139Z,38.80
2019-05-06T02:26:54.249Z,38.90
2019-05-06T02:29:29.885Z,38.90
2019-05-06T02:32:30.160Z,38.90
2019-05-06T02:35:05.188Z,38.80
2019-05-06T02:37:40.295Z,39.20
2019-05-06T02:40:33.382Z,39.60
2019-05-06T02:43:08.047Z,39.40
2019-05-06T02:45:43.304Z,39.30
2019-05-06T02:48:26.341Z,39.20
2019-05-06T02:51:13.367Z,39.30
2019-05-06T02:53:47.462Z,39.80
2019-05-06T02:56:23.993Z,40.20
2019-05-06T02:58:57.170Z,40.30
2019-05-06T03:01:33.853Z,40.30
2019-05-06T03:04:05.546Z,40.20
2019-05-06T03:06:39.560Z,40.50
2019-05-06T03:09:13.649Z,41.10
2019-05-06T03:11:47.982Z,41.20
2019-05-06T03:14:23.468Z,40.50
2019-05-06T03:16:57.210Z,40.80
2019-05-06T03:19:34.121Z,40.80
2019-05-06T03:22:43.561Z,40.80
2019-05-06T03:25:34.654Z,40.70
2019-05-06T03:28:08.494Z,41.10
2019-05-06T03:30:45.932Z,40.90
2019-05-06T03:33:44.656Z,40.90
2019-05-06T03:36:06.199Z,40.70
2019-05-06T03:38:28.568Z,40.80
2019-05-06T03:41:03.173Z,41.50
2019-05-06T03:43:36.839Z,41.00
2019-05-06T03:46:35.820Z,40.90
2019-05-06T03:49:09.286Z,41.40
2019-05-06T03:51:43.081Z,41.80
2019-05-06T03:54:18.130Z,41.90
2019-05-06T03:56:53.726Z,41.60
2019-05-06T03:59:28.682Z,41.90
2019-05-06T04:02:05.325Z,42.10
2019-05-06T04:04:39.166Z,41.70
2019-05-06T04:07:14.014Z,40.90
2019-05-06T04:09:47.908Z,40.60
2019-05-06T04:12:23.336Z,40.80
2019-05-06T04:14:57.036Z,41.00
2019-05-06T04:17:53.804Z,40.80
2019-05-06T04:20:37.800Z,40.90
2019-05-06T04:23:29.123Z,40.50
2019-05-06T04:26:13.411Z,40.70
2019-05-06T04:28:46.480Z,40.60
2019-05-06T04:31:22.713Z,40.90
2019-05-06T04:34:10.053Z,41.00
2019-05-06T04:36:33.686Z,41.70
2019-05-06T04:39:06.667Z,41.50
2019-05-06T04:41:43.227Z,41.70
2019-05-06T04:44:16.202Z,41.60
2019-05-06T04:46:49.773Z,41.20
2019-05-06T04:49:23.824Z,41.90
2019-05-06T04:51:58.347Z,41.30
2019-05-06T04:54:33.617Z,41.40
2019-05-06T04:57:07.300Z,41.70
2019-05-06T04:59:43.181Z,41.50
2019-05-06T05:02:15.700Z,41.30
2019-05-06T05:04:52.641Z,41.40
2019-05-06T05:07:25.678Z,41.50
2019-05-06T05:10:14.462Z,42.00
2019-05-06T05:12:56.866Z,41.50
2019-05-06T05:15:48.822Z,41.40
2019-05-06T05:18:29.270Z,41.60
2019-05-06T05:21:03.605Z,41.40
2019-05-06T05:23:37.893Z,41.30
2019-05-06T05:26:12.176Z,41.40
2019-05-06T05:28:46.048Z,41.50
2019-05-06T05:31:19.056Z,41.20
2019-05-06T05:33:53.362Z,41.10
2019-05-06T05:36:26.925Z,41.20
2019-05-06T05:39:03.088Z,41.40
2019-05-06T05:41:36.306Z,41.70
2019-05-06T05:44:17.245Z,41.90
2019-05-06T05:46:52.359Z,41.90
2019-05-06T05:49:47.529Z,41.90
2019-05-06T05:52:22.279Z,41.40
2019-05-06T05:54:56.490Z,41.80
2019-05-06T05:57:31.715Z,41.90
2019-05-06T06:00:05.457Z,42.00
2019-05-06T06:02:38.020Z,41.70
2019-05-06T06:05:12.353Z,41.50
2019-05-06T06:07:44.750Z,41.10
2019-05-06T06:10:26.244Z,40.70
2019-05-06T06:12:58.337Z,41.00
2019-05-06T06:15:37.957Z,41.10
2019-05-06T06:18:27.455Z,40.40
2019-05-06T06:21:24.720Z,40.10
2019-05-06T06:23:54.896Z,40.30
2019-05-06T06:26:26.829Z,40.40
2019-05-06T06:28:59.765Z,40.10
2019-05-06T06:31:52.428Z,40.40
2019-05-06T06:34:30.041Z,39.10
2019-05-06T06:37:28.103Z,39.40
2019-05-06T06:40:02.734Z,39.70
2019-05-06T06:42:36.933Z,40.00
2019-05-06T06:45:12.277Z,40.10
2019-05-06T06:47:46.579Z,39.90
2019-05-06T06:50:22.059Z,39.50
2019-05-06T06:52:56.057Z,38.90
2019-05-06T06:55:31.840Z,39.60
2019-05-06T06:58:28.766Z,38.70
2019-05-06T07:01:28.583Z,37.50
2019-05-06T07:04:23.165Z,36.60
2019-05-06T07:06:57.764Z,35.90
2019-05-06T07:09:32.379Z,37.20
2019-05-06T07:12:06.436Z,35.70
2019-05-06T07:14:42.259Z,35.40
2019-05-06T07:17:15.790Z,35.00
2019-05-06T07:19:53.458Z,34.80
2019-05-06T07:22:32.549Z,33.90
2019-05-06T07:25:07.251Z,34.80
2019-05-06T07:27:42.063Z,34.60
2019-05-06T07:30:15.479Z,34.70
2019-05-06T07:32:48.874Z,33.60
2019-05-06T07:35:23.812Z,34.80
2019-05-06T07:37:55.732Z,33.40
2019-05-06T07:40:28.183Z,33.40
2019-05-06T07:43:02.352Z,32.20
2019-05-06T07:45:45.681Z,31.40
2019-05-06T07:48:17.927Z,30.70
2019-05-06T07:50:52.085Z,31.00
2019-05-06T07:53:25.856Z,31.10
2019-05-06T07:55:57.795Z,31.00
2019-05-06T07:58:32.245Z,31.40
2019-05-06T08:01:04.768Z,30.00
2019-05-06T08:03:37.273Z,30.80
2019-05-06T08:06:09.738Z,30.70
2019-05-06T08:08:43.363Z,31.00
2019-05-06T08:11:15.968Z,31.30
2019-05-06T08:13:48.320Z,31.90
2019-05-06T08:16:22.624Z,29.90
2019-05-06T08:18:56.095Z,30.10
2019-05-06T08:21:32.651Z,31.40
2019-05-06T08:24:05.625Z,31.50
2019-05-06T08:26:38.631Z,32.20
2019-05-06T08:29:12.568Z,31.80
2019-05-06T08:31:46.426Z,32.70
2019-05-06T08:34:22.472Z,32.30
2019-05-06T08:37:22.745Z,32.60
2019-05-06T08:39:55.965Z,31.60
2019-05-06T08:42:28.927Z,30.90
2019-05-06T08:45:02.226Z,30.50
2019-05-06T08:47:36.667Z,29.50
2019-05-06T08:50:42.556Z,29.80
2019-05-06T08:53:30.357Z,29.80
2019-05-06T08:56:05.323Z,30.00
2019-05-06T08:58:48.727Z,30.30
2019-05-06T09:01:32.704Z,30.40
2019-05-06T09:04:12.425Z,30.10
2019-05-06T09:06:43.156Z,30.20
2019-05-06T09:09:17.068Z,30.30
2019-05-06T09:11:53.116Z,31.20
2019-05-06T09:14:26.702Z,30.80
2019-05-06T09:16:59.867Z,30.70
2019-05-06T09:19:33.549Z,31.10
2019-05-06T09:22:07.350Z,30.60
2019-05-06T09:24:42.683Z,31.10
2019-05-06T09:27:22.589Z,30.80
2019-05-06T09:30:02.844Z,30.60
2019-05-06T09:32:42.945Z,30.80
2019-05-06T09:35:16.913Z,31.60
2019-05-06T09:37:53.275Z,30.90
2019-05-06T09:40:25.903Z,30.70
2019-05-06T09:42:59.034Z,31.30
2019-05-06T09:45:33.090Z,30.00
2019-05-06T09:48:34.747Z,30.20
2019-05-06T09:51:08.843Z,31.00
2019-05-06T09:54:01.608Z,30.90
2019-05-06T09:56:45.868Z,30.40
2019-05-06T09:59:21.566Z,29.70
2019-05-06T10:01:55.013Z,29.50
2019-05-06T10:04:28.873Z,29.80
2019-05-06T10:07:02.748Z,30.10
2019-05-06T10:09:37.048Z,30.00
2019-05-06T10:12:12.778Z,30.00
2019-05-06T10:14:47.169Z,29.80
2019-05-06T10:17:21.363Z,30.50
2019-05-06T10:19:55.093Z,31.40
2019-05-06T10:22:28.970Z,30.40
2019-05-06T10:25:03.830Z,28.50
2019-05-06T10:27:39.421Z,28.50
2019-05-06T10:30:12.760Z,28.20
2019-05-06T10:32:49.615Z,28.90
2019-05-06T10:35:26.831Z,28.60
2019-05-06T10:38:33.398Z,28.10
2019-05-06T10:41:13.021Z,28.00
2019-05-06T10:44:35.350Z,28.00
2019-05-06T10:47:08.845Z,28.10
2019-05-06T10:49:42.083Z,29.30
2019-05-06T10:52:25.695Z,28.60
2019-05-06T10:54:58.271Z,29.50
2019-05-06T10:57:35.035Z,29.50
2019-05-06T11:00:09.135Z,29.10
2019-05-06T11:03:14.377Z,28.40
2019-05-06T11:05:46.573Z,29.10
2019-05-06T11:08:22.098Z,29.40
2019-05-06T11:10:55.310Z,29.30
2019-05-06T11:13:28.661Z,29.30
2019-05-06T11:16:03.386Z,29.20
2019-05-06T11:18:36.530Z,28.60
2019-05-06T11:21:12.614Z,29.20
2019-05-06T11:23:45.288Z,29.00
2019-05-06T11:26:17.328Z,29.50
2019-05-06T11:28:56.867Z,28.80
2019-05-06T11:31:49.108Z,27.20
2019-05-06T11:34:45.211Z,27.60
2019-05-06T11:37:47.167Z,26.80
2019-05-06T11:40:17.028Z,27.10
2019-05-06T11:42:49.167Z,27.10
2019-05-06T11:45:22.892Z,27.40
2019-05-06T11:47:56.291Z,26.90
2019-05-06T11:50:28.261Z,26.90
2019-05-06T11:53:02.467Z,27.30
2019-05-06T11:55:38.838Z,27.60
2019-05-06T11:58:28.249Z,28.10
2019-05-06T12:01:04.484Z,28.40
2019-05-06T12:03:37.705Z,27.90
2019-05-06T12:06:13.078Z,28.10
2019-05-06T12:08:47.334Z,29.30
2019-05-06T12:11:23.445Z,28.00
2019-05-06T12:13:55.109Z,28.30
2019-05-06T12:16:27.567Z,27.20
2019-05-06T12:19:02.212Z,27.30
2019-05-06T12:21:34.850Z,25.60
2019-05-06T12:24:07.176Z,26.10
2019-05-06T12:26:42.931Z,25.00
2019-05-06T12:29:17.393Z,26.00
2019-05-06T12:31:55.969Z,26.10
2019-05-06T12:34:29.353Z,27.20
2019-05-06T12:37:04.708Z,28.40
2019-05-06T12:39:38.108Z,28.80
2019-05-06T12:42:16.845Z,28.20
2019-05-06T12:45:27.192Z,27.90
2019-05-06T12:48:06.241Z,28.60
2019-05-06T12:50:39.646Z,29.20
2019-05-06T12:53:13.864Z,28.70
2019-05-06T12:55:47.380Z,27.90
2019-05-06T12:58:23.364Z,28.20
2019-05-06T13:00:57.413Z,27.20
2019-05-06T13:03:32.628Z,27.10
2019-05-06T13:06:08.488Z,27.10
2019-05-06T13:08:56.689Z,26.60
2019-05-06T13:11:18.087Z,26.10
2019-05-06T13:13:59.742Z,26.40
2019-05-06T13:16:27.053Z,25.90
2019-05-06T13:19:03.369Z,26.40
2019-05-06T13:21:36.866Z,26.50
2019-05-06T13:24:12.185Z,26.70
2019-05-06T13:26:46.659Z,27.40
2019-05-06T13:29:24.520Z,26.60
2019-05-06T13:31:56.978Z,27.20
2019-05-06T13:34:29.663Z,27.90
2019-05-06T13:37:03.265Z,28.70
2019-05-06T13:39:35.699Z,29.10
2019-05-06T13:42:07.632Z,29.00
2019-05-06T13:44:39.712Z,29.40
2019-05-06T13:47:15.949Z,29.40
2019-05-06T13:49:56.913Z,29.20
2019-05-06T13:52:36.428Z,29.70
2019-05-06T13:55:09.770Z,29.40
2019-05-06T13:57:42.985Z,29.00
2019-05-06T14:00:18.335Z,29.40
2019-05-06T14:02:54.355Z,28.50
2019-05-06T14:05:28.469Z,28.60
2019-05-06T14:08:04.588Z,28.00
2019-05-06T14:10:35.451Z,28.10
2019-05-06T14:13:07.979Z,27.30
2019-05-06T14:15:42.011Z,28.30
2019-05-06T14:18:14.357Z,28.00
2019-05-06T14:20:48.335Z,27.30
2019-05-06T14:23:22.277Z,27.20
2019-05-06T14:26:28.927Z,28.20
2019-05-06T14:29:16.203Z,28.10
2019-05-06T14:31:52.540Z,28.30
2019-05-06T14:34:25.229Z,28.30
2019-05-06T14:36:58.660Z,28.00
2019-05-06T14:39:48.572Z,27.50
2019-05-06T14:42:08.311Z,27.80
2019-05-06T14:44:43.154Z,28.10
2019-05-06T14:47:25.182Z,28.80
2019-05-06T14:49:57.212Z,29.20
2019-05-06T14:52:33.150Z,30.10
2019-05-06T14:55:27.737Z,30.30
2019-05-06T14:58:04.308Z,29.20
2019-05-06T15:00:36.751Z,28.50
2019-05-06T15:03:12.967Z,28.70
2019-05-06T15:05:46.306Z,28.50
2019-05-06T15:08:22.342Z,28.10
2019-05-06T15:10:55.420Z,29.10
2019-05-06T15:13:31.992Z,28.40
2019-05-06T15:16:05.519Z,28.50
2019-05-06T15:18:39.257Z,26.90
2019-05-06T15:21:32.350Z,26.60
2019-05-06T15:23:47.478Z,26.80
2019-05-06T15:26:22.904Z,26.30
2019-05-06T15:28:56.609Z,27.60
2019-05-06T15:31:42.114Z,28.10
2019-05-06T15:34:22.286Z,28.20
2019-05-06T15:37:04.774Z,28.30
2019-05-06T15:39:38.401Z,28.30
2019-05-06T15:42:12.830Z,28.00
2019-05-06T15:44:47.542Z,27.80
2019-05-06T15:47:22.662Z,27.50
2019-05-06T15:49:56.655Z,28.40
2019-05-06T15:52:32.449Z,28.30
2019-05-06T15:55:05.998Z,28.20
2019-05-06T15:57:39.300Z,28.70
2019-05-06T16:00:17.033Z,28.30
2019-05-06T16:02:52.744Z,29.60
2019-05-06T16:05:26.847Z,31.10
2019-05-06T16:08:02.716Z,32.30
2019-05-06T16:10:51.374Z,33.20
2019-05-06T16:13:12.949Z,34.00
2019-05-06T16:15:46.084Z,34.10
2019-05-06T16:18:20.195Z,33.80
2019-05-06T16:20:57.243Z,34.00
2019-05-06T16:23:38.366Z,34.30
2019-05-06T16:26:12.632Z,34.70
2019-05-06T16:28:46.918Z,34.70
2019-05-06T16:31:22.347Z,33.80
2019-05-06T16:33:56.580Z,33.90
2019-05-06T16:36:32.389Z,33.40
2019-05-06T16:39:07.319Z,33.90
2019-05-06T16:41:42.667Z,34.30
2019-05-06T16:44:16.513Z,34.60
2019-05-06T16:46:52.381Z,34.30
2019-05-06T16:49:27.376Z,34.90
2019-05-06T16:52:02.519Z,34.70
2019-05-06T16:54:35.294Z,34.40
2019-05-06T16:57:23.175Z,34.60
2019-05-06T16:59:57.263Z,34.20
2019-05-06T17:02:38.864Z,34.30
2019-05-06T17:05:29.228Z,34.90
2019-05-06T17:08:03.177Z,35.00
2019-05-06T17:10:35.987Z,34.10
2019-05-06T17:13:09.958Z,33.60
2019-05-06T17:15:44.523Z,33.70
2019-05-06T17:18:18.394Z,33.80
2019-05-06T17:20:52.302Z,33.40
2019-05-06T17:23:27.433Z,33.80
2019-05-06T17:26:01.458Z,33.40
2019-05-06T17:28:53.382Z,33.20
2019-05-06T17:31:49.999Z,33.50
2019-05-06T17:34:26.765Z,33.80
2019-05-06T17:37:04.415Z,33.70
2019-05-06T17:39:36.930Z,33.50
2019-05-06T17:42:11.100Z,33.00
2019-05-06T17:44:44.605Z,32.10
2019-05-06T17:47:40.091Z,32.70
2019-05-06T17:50:13.092Z,33.00
2019-05-06T17:52:46.007Z,33.50
2019-05-06T17:55:18.511Z,33.90
2019-05-06T17:57:52.861Z,33.50
2019-05-06T18:00:26.061Z,33.40
2019-05-06T18:02:59.868Z,33.40
2019-05-06T18:05:32.621Z,32.90
2019-05-06T18:08:05.182Z,32.70
2019-05-06T18:10:37.564Z,32.70
2019-05-06T18:13:12.381Z,32.60
2019-05-06T18:15:44.037Z,32.70
2019-05-06T18:18:17.060Z,32.60
2019-05-06T18:20:52.875Z,32.80
2019-05-06T18:23:25.466Z,33.10
2019-05-06T18:25:58.946Z,33.70
2019-05-06T18:28:32.772Z,33.90
2019-05-06T18:31:06.211Z,33.90
2019-05-06T18:33:39.641Z,34.30
2019-05-06T18:36:13.004Z,34.70
2019-05-06T18:38:45.993Z,34.70
2019-05-06T18:41:18.454Z,35.20
2019-05-06T18:43:53.413Z,35.50
2019-05-06T18:46:27.003Z,35.50
2019-05-06T18:49:02.402Z,35.40
2019-05-06T18:51:35.648Z,35.50
2019-05-06T18:54:09.274Z,35.80
2019-05-06T18:56:43.382Z,35.80
2019-05-06T18:59:17.837Z,35.90
2019-05-06T19:01:53.713Z,36.00
2019-05-06T19:04:33.581Z,35.90
2019-05-06T19:07:14.554Z,36.00
2019-05-06T19:09:55.229Z,36.50
2019-05-06T19:12:32.618Z,36.60
2019-05-06T19:15:04.080Z,37.00
2019-05-06T19:17:36.698Z,37.00
2019-05-06T19:20:10.541Z,36.80
2019-05-06T19:22:43.690Z,36.40
2019-05-06T19:25:16.787Z,36.70
2019-05-06T19:27:49.617Z,36.90
2019-05-06T19:30:23.347Z,37.00
2019-05-06T19:32:56.506Z,37.40
2019-05-06T19:35:32.336Z,38.30
2019-05-06T19:38:05.241Z,37.60
2019-05-06T19:40:38.408Z,37.20
2019-05-06T19:43:12.407Z,36.50
2019-05-06T19:45:45.926Z,35.80
2019-05-06T19:48:19.080Z,35.70
2019-05-06T19:50:52.285Z,35.80
2019-05-06T19:53:26.542Z,35.70
2019-05-06T19:55:59.911Z,35.70
2019-05-06T19:58:34.059Z,36.20
2019-05-06T20:01:07.797Z,37.20
2019-05-06T20:03:42.305Z,37.50
2019-05-06T20:06:36.003Z,38.10
2019-05-06T20:09:35.407Z,37.90
2019-05-06T20:12:12.427Z,38.50
2019-05-06T20:14:46.091Z,39.20
2019-05-06T20:17:19.682Z,39.80
2019-05-06T20:19:52.319Z,40.10
2019-05-06T20:22:25.901Z,40.80
2019-05-06T20:24:59.215Z,41.10
2019-05-06T20:27:32.672Z,41.40
2019-05-06T20:30:06.381Z,40.70
2019-05-06T20:32:39.053Z,40.40
2019-05-06T20:35:13.135Z,39.80
2019-05-06T20:37:47.034Z,39.50
2019-05-06T20:40:22.872Z,39.50
2019-05-06T20:42:56.112Z,39.10
2019-05-06T20:45:32.414Z,38.40
2019-05-06T20:48:04.230Z,38.40
2019-05-06T20:50:38.092Z,38.90
2019-05-06T20:53:12.125Z,39.40
2019-05-06T20:55:45.571Z,39.60
2019-05-06T20:58:19.306Z,39.30
2019-05-06T21:00:52.940Z,39.00
2019-05-06T21:03:27.079Z,38.70
2019-05-06T21:06:02.076Z,38.50
2019-05-06T21:08:35.787Z,37.70
2019-05-06T21:11:24.919Z,37.10
2019-05-06T21:13:45.451Z,37.20
2019-05-06T21:16:19.605Z,37.90
2019-05-06T21:18:53.220Z,37.90
2019-05-06T21:21:27.157Z,37.40
2019-05-06T21:24:02.035Z,37.00
2019-05-06T21:26:36.302Z,37.10
2019-05-06T21:29:09.847Z,36.40
2019-05-06T21:31:43.343Z,36.30
2019-05-06T21:34:17.640Z,36.30
2019-05-06T21:36:53.160Z,36.30
2019-05-06T21:39:26.963Z,36.30
2019-05-06T21:42:00.929Z,36.60
2019-05-06T21:44:34.985Z,36.80
2019-05-06T21:47:08.721Z,37.10
2019-05-06T21:49:42.608Z,37.40
2019-05-06T21:52:16.599Z,37.30
2019-05-06T21:54:52.423Z,37.70
2019-05-06T21:57:26.437Z,38.00
2019-05-06T22:00:02.404Z,37.90
2019-05-06T22:02:35.878Z,37.80
2019-05-06T22:05:09.237Z,37.70
2019-05-06T22:07:43.575Z,37.80
2019-05-06T22:10:16.745Z,37.70
2019-05-06T22:12:52.686Z,37.50
2019-05-06T22:15:26.556Z,37.80
2019-05-06T22:18:02.403Z,38.00
2019-05-06T22:20:54.558Z,38.10
2019-05-06T22:23:29.522Z,37.90
2019-05-06T22:26:13.000Z,38.60
2019-05-06T22:28:38.596Z,39.30
2019-05-06T22:31:12.218Z,40.00
2019-05-06T22:33:45.557Z,40.40
2019-05-06T22:36:19.307Z,40.40
2019-05-06T22:38:53.183Z,39.80
2019-05-06T22:41:26.764Z,39.50
2019-05-06T22:44:12.529Z,39.30
2019-05-06T22:46:36.392Z,39.40
2019-05-06T22:49:10.094Z,39.70
2019-05-06T22:51:43.296Z,39.80
2019-05-06T22:54:17.284Z,39.50
2019-05-06T22:56:52.393Z,39.50
2019-05-06T22:59:26.698Z,39.50
2019-05-06T23:02:07.018Z,39.40
2019-05-06T23:04:40.141Z,39.10
2019-05-06T23:07:14.277Z,38.80
2019-05-06T23:09:48.170Z,38.30
2019-05-06T23:12:23.160Z,38.30
2019-05-06T23:14:56.773Z,38.10
2019-05-06T23:17:34.244Z,38.00
2019-05-06T23:20:06.441Z,37.90
2019-05-06T23:22:42.285Z,38.70
2019-05-06T23:25:15.852Z,40.60
2019-05-06T23:27:48.816Z,42.10
2019-05-06T23:30:23.585Z,42.90
2019-05-06T23:32:57.228Z,43.60
2019-05-06T23:35:31.274Z,44.40
2019-05-06T23:38:56.929Z,44.40
2019-05-06T23:42:22.802Z,45.30
2019-05-06T23:45:49.511Z,45.70
2019-05-06T23:49:14.834Z,46.00
2019-05-06T23:52:39.914Z,46.00
2019-05-06T23:56:04.954Z,44.70
2019-05-06T23:58:38.250Z,44.90
